Time;durP1;ratioP1;P1;durP2;ratioP2;P2;SDS_P1;SDS_P2;PMS_P1;PMS_P2;Temp;Humidity;BMP_temperature;BMP_pressure;BME280_temperature;BME280_humidity;BME280_pressure;Samples;Min_cycle;Max_cycle;Signal;HPM_P1;HPM_P2
2021/11/25 00:00:05;;;;;;;0.00;0.00;;;;;;;;;;5089064;28;20703;-77
2021/11/25 00:02:33;;;;;;;0.00;0.00;;;;;;;;;;5085208;28;20316;-78
2021/11/25 00:05:02;;;;;;;0.00;0.00;;;;;;;;;;5084379;28;20218;-77
2021/11/25 00:07:29;;;;;;;0.00;0.00;;;;;;;;;;5080823;28;20686;-77
2021/11/25 00:09:56;;;;;;;0.00;0.00;;;;;;;;;;5088366;28;20206;-75
2021/11/25 00:12:24;;;;;;;0.00;0.00;;;;;;;;;;5086392;28;20198;-76
2021/11/25 00:14:51;;;;;;;0.00;0.00;;;;;;;;;;5083892;28;20594;-76
2021/11/25 00:17:19;;;;;;;0.00;0.00;;;;;;;;;;5086488;28;20690;-76
2021/11/25 00:19:46;;;;;;;0.40;0.40;;;;;;;;;;5088824;28;20658;-76
2021/11/25 00:22:15;;;;;;;0.00;0.00;;;;;;;;;;5083667;28;20263;-76
2021/11/25 00:24:43;;;;;;;0.00;0.00;;;;;;;;;;5083758;28;20205;-72
2021/11/25 00:27:10;;;;;;;0.00;0.00;;;;;;;;;;5082896;28;20555;-75
2021/11/25 00:29:37;;;;;;;0.00;0.00;;;;;;;;;;5078090;28;20202;-74
2021/11/25 00:32:05;;;;;;;0.00;0.00;;;;;;;;;;5085223;28;20228;-77
2021/11/25 00:34:32;;;;;;;0.00;0.00;;;;;;;;;;5088797;28;20198;-76
2021/11/25 00:37:00;;;;;;;0.00;0.00;;;;;;;;;;5083240;28;20199;-77
2021/11/25 00:39:30;;;;;;;0.00;0.00;;;;;;;;;;5089064;28;20198;-77
2021/11/25 00:41:57;;;;;;;0.00;0.00;;;;;;;;;;5088274;28;20206;-76
2021/11/25 00:44:25;;;;;;;0.00;0.00;;;;;;;;;;5088902;28;20684;-78
2021/11/25 00:46:52;;;;;;;1.80;1.70;;;;;;;;;;5088684;28;20628;-76
2021/11/25 00:49:19;;;;;;;0.00;0.00;;;;;;;;;;5090290;28;20194;-76
2021/11/25 00:51:47;;;;;;;0.00;0.00;;;;;;;;;;5091135;28;20210;-76
2021/11/25 00:54:14;;;;;;;0.00;0.00;;;;;;;;;;5092026;28;20576;-76
2021/11/25 00:56:43;;;;;;;0.00;0.00;;;;;;;;;;5083846;28;20573;-75
2021/11/25 00:59:11;;;;;;;0.00;0.00;;;;;;;;;;5092221;28;20660;-75
2021/11/25 01:01:38;;;;;;;0.00;0.00;;;;;;;;;;5091626;28;20230;-75
2021/11/25 01:04:06;;;;;;;0.00;0.00;;;;;;;;;;5089815;28;20234;-74
2021/11/25 01:06:33;;;;;;;0.00;0.00;;;;;;;;;;5083945;28;20226;-78
2021/11/25 01:09:01;;;;;;;0.00;0.00;;;;;;;;;;5089285;28;20660;-75
2021/11/25 01:11:28;;;;;;;0.00;0.00;;;;;;;;;;5091172;28;20198;-76
2021/11/25 01:13:57;;;;;;;0.00;0.00;;;;;;;;;;5092221;28;20678;-78
2021/11/25 01:16:24;;;;;;;0.00;0.00;;;;;;;;;;5090104;28;20214;-75
2021/11/25 01:18:52;;;;;;;0.00;0.00;;;;;;;;;;5092134;28;20195;-76
2021/11/25 01:21:20;;;;;;;0.00;0.00;;;;;;;;;;5090304;28;20201;-75
2021/11/25 01:23:47;;;;;;;0.00;0.00;;;;;;;;;;5086525;28;20202;-77
2021/11/25 01:26:15;;;;;;;0.00;0.00;;;;;;;;;;5084951;28;20714;-77
2021/11/25 01:28:43;;;;;;;0.00;0.00;;;;;;;;;;5084281;28;20648;-72
2021/11/25 01:31:11;;;;;;;0.00;0.00;;;;;;;;;;5091488;28;20244;-77
2021/11/25 01:33:39;;;;;;;0.43;0.43;;;;;;;;;;5086294;28;20209;-77
2021/11/25 01:36:06;;;;;;;2.63;2.43;;;;;;;;;;5089581;28;20210;-77
2021/11/25 01:38:34;;;;;;;0.00;0.00;;;;;;;;;;5091021;28;20195;-75
2021/11/25 01:41:01;;;;;;;0.00;0.00;;;;;;;;;;5089719;28;20618;-76
2021/11/25 01:43:30;;;;;;;0.00;0.00;;;;;;;;;;5088628;28;20207;-76
2021/11/25 01:45:58;;;;;;;0.00;0.00;;;;;;;;;;5087825;28;20237;-74
2021/11/25 01:48:27;;;;;;;0.00;0.00;;;;;;;;;;5091523;28;20263;-77
2021/11/25 01:50:54;;;;;;;0.57;0.57;;;;;;;;;;5092413;28;20194;-78
2021/11/25 01:53:22;;;;;;;0.00;0.00;;;;;;;;;;5085068;28;20227;-74
2021/11/25 01:55:50;;;;;;;0.00;0.00;;;;;;;;;;5089796;28;20195;-78
2021/11/25 01:58:18;;;;;;;2.27;2.23;;;;;;;;;;5091440;28;20244;-76
2021/11/25 02:00:47;;;;;;;0.00;0.00;;;;;;;;;;5087118;28;20262;-75
2021/11/25 02:03:15;;;;;;;0.00;0.00;;;;;;;;;;5085357;28;20579;-75
2021/11/25 02:05:43;;;;;;;0.00;0.00;;;;;;;;;;5090372;28;20695;-75
2021/11/25 02:08:11;;;;;;;0.00;0.00;;;;;;;;;;5092571;28;20603;-78
2021/11/25 02:10:40;;;;;;;0.00;0.00;;;;;;;;;;5088874;28;20667;-78
2021/11/25 02:13:07;;;;;;;0.00;0.00;;;;;;;;;;5083469;28;20210;-75
2021/11/25 02:15:38;;;;;;;0.00;0.00;;;;;;;;;;5086598;28;20202;-76
2021/11/25 02:18:06;;;;;;;0.00;0.00;;;;;;;;;;5092189;28;20198;-78
2021/11/25 02:20:36;;;;;;;0.00;0.00;;;;;;;;;;5087827;28;20229;-77
2021/11/25 02:23:04;;;;;;;0.00;0.00;;;;;;;;;;5086394;28;20259;-77
2021/11/25 02:25:32;;;;;;;0.00;0.00;;;;;;;;;;5087801;28;20222;-77
2021/11/25 02:27:59;;;;;;;0.33;0.33;;;;;;;;;;5087888;28;20195;-77
2021/11/25 02:30:27;;;;;;;0.20;0.20;;;;;;;;;;5089757;28;20663;-77
2021/11/25 02:32:54;;;;;;;1.53;1.43;;;;;;;;;;5087927;28;20576;-77
2021/11/25 02:35:22;;;;;;;0.00;0.00;;;;;;;;;;5081875;28;20205;-77
2021/11/25 02:37:53;;;;;;;0.00;0.00;;;;;;;;;;5087338;28;20194;-79
2021/11/25 02:40:23;;;;;;;0.00;0.00;;;;;;;;;;5088928;28;20202;-76
2021/11/25 02:42:52;;;;;;;0.00;0.00;;;;;;;;;;5086310;28;20202;-75
2021/11/25 02:45:20;;;;;;;0.00;0.00;;;;;;;;;;5083726;28;20199;-76
2021/11/25 02:47:47;;;;;;;0.00;0.00;;;;;;;;;;5091087;28;20247;-76
2021/11/25 02:50:16;;;;;;;0.00;0.00;;;;;;;;;;5086229;28;20202;-77
2021/11/25 02:52:44;;;;;;;0.00;0.00;;;;;;;;;;5087082;28;20194;-76
2021/11/25 02:55:13;;;;;;;0.00;0.00;;;;;;;;;;5080288;28;20667;-73
2021/11/25 02:57:41;;;;;;;0.00;0.00;;;;;;;;;;5084145;28;20190;-77
2021/11/25 03:00:15;;;;;;;0.00;0.00;;;;;;;;;;5089614;28;20237;-79
2021/11/25 03:02:42;;;;;;;0.00;0.00;;;;;;;;;;5075582;28;20205;-77
2021/11/25 03:05:11;;;;;;;0.00;0.00;;;;;;;;;;5089035;28;20202;-78
2021/11/25 03:07:39;;;;;;;0.00;0.00;;;;;;;;;;5087792;28;20230;-76
2021/11/25 03:10:07;;;;;;;0.00;0.00;;;;;;;;;;5087812;28;20234;-78
2021/11/25 03:12:36;;;;;;;0.00;0.00;;;;;;;;;;5087144;28;20217;-79
2021/11/25 03:15:04;;;;;;;0.00;0.00;;;;;;;;;;5089690;28;20202;-79
2021/11/25 03:17:32;;;;;;;0.00;0.00;;;;;;;;;;5085975;28;20201;-79
2021/11/25 03:19:59;;;;;;;0.00;0.00;;;;;;;;;;5083555;28;20210;-78
2021/11/25 03:22:27;;;;;;;0.00;0.00;;;;;;;;;;5087630;28;20218;-80
2021/11/25 03:24:56;;;;;;;0.00;0.00;;;;;;;;;;5088868;28;20205;-79
2021/11/25 03:27:24;;;;;;;0.90;0.90;;;;;;;;;;5086397;28;20256;-78
2021/11/25 03:29:53;;;;;;;0.00;0.00;;;;;;;;;;5088652;28;20691;-78
2021/11/25 03:32:20;;;;;;;0.00;0.00;;;;;;;;;;5086382;28;20202;-77
2021/11/25 03:34:47;;;;;;;0.77;0.43;;;;;;;;;;5087667;28;20663;-78
2021/11/25 03:37:15;;;;;;;0.00;0.00;;;;;;;;;;5094752;28;20662;-78
2021/11/25 03:39:42;;;;;;;0.10;0.10;;;;;;;;;;5087953;28;20259;-78
2021/11/25 03:42:09;;;;;;;0.23;0.23;;;;;;;;;;5089052;28;20199;-78
2021/11/25 03:44:37;;;;;;;0.00;0.00;;;;;;;;;;5081729;28;20206;-77
2021/11/25 03:47:06;;;;;;;1.40;1.40;;;;;;;;;;5078135;28;20230;-79
2021/11/25 03:49:33;;;;;;;0.00;0.00;;;;;;;;;;5087962;28;20201;-79
2021/11/25 03:52:01;;;;;;;0.10;0.10;;;;;;;;;;5084709;28;20693;-75
2021/11/25 03:54:28;;;;;;;0.00;0.00;;;;;;;;;;5087350;28;20273;-77
2021/11/25 03:56:56;;;;;;;0.00;0.00;;;;;;;;;;5084893;28;20674;-78
2021/11/25 03:59:23;;;;;;;0.00;0.00;;;;;;;;;;5089000;28;20209;-76
2021/11/25 04:01:50;;;;;;;0.00;0.00;;;;;;;;;;5087795;28;20233;-76
2021/11/25 04:04:19;;;;;;;0.00;0.00;;;;;;;;;;5088843;28;20210;-75
2021/11/25 04:06:47;;;;;;;0.00;0.00;;;;;;;;;;5087612;28;20226;-79
2021/11/25 04:09:14;;;;;;;0.00;0.00;;;;;;;;;;5084769;28;20577;-78
2021/11/25 04:11:41;;;;;;;0.00;0.00;;;;;;;;;;5086347;28;21986;-76
2021/11/25 04:14:09;;;;;;;0.00;0.00;;;;;;;;;;5087475;28;20209;-75
2021/11/25 04:16:36;;;;;;;0.00;0.00;;;;;;;;;;5086779;28;20213;-76
2021/11/25 04:19:04;;;;;;;0.00;0.00;;;;;;;;;;5091522;28;20206;-78
2021/11/25 04:21:33;;;;;;;0.00;0.00;;;;;;;;;;5091416;28;20504;-77
2021/11/25 04:24:00;;;;;;;0.00;0.00;;;;;;;;;;5090630;28;20202;-77
2021/11/25 04:26:28;;;;;;;0.00;0.00;;;;;;;;;;5092153;28;20571;-76
2021/11/25 04:28:55;;;;;;;0.00;0.00;;;;;;;;;;5092026;28;20580;-76
2021/11/25 04:36:54;;;;;;;0.00;0.00;;;;;;;;;;5089645;28;21011;-74
2021/11/25 04:39:21;;;;;;;0.00;0.00;;;;;;;;;;5091749;28;20203;-76
2021/11/25 04:41:49;;;;;;;0.00;0.00;;;;;;;;;;5091632;28;20205;-75
2021/11/25 04:44:16;;;;;;;9.37;8.70;;;;;;;;;;5090438;28;20194;-77
2021/11/25 04:46:44;;;;;;;0.00;0.00;;;;;;;;;;5091170;28;20589;-76
2021/11/25 04:49:11;;;;;;;0.00;0.00;;;;;;;;;;5087278;28;20207;-76
2021/11/25 04:51:39;;;;;;;0.00;0.00;;;;;;;;;;5090798;28;20205;-78
2021/11/25 04:54:07;;;;;;;0.00;0.00;;;;;;;;;;5089018;28;20203;-76
2021/11/25 04:56:36;;;;;;;0.00;0.00;;;;;;;;;;5092088;28;20213;-78
2021/11/25 04:59:03;;;;;;;0.00;0.00;;;;;;;;;;5089083;28;20203;-77
2021/11/25 05:01:31;;;;;;;0.00;0.00;;;;;;;;;;5088694;28;20225;-77
2021/11/25 05:03:58;;;;;;;0.00;0.00;;;;;;;;;;5091120;28;20667;-76
2021/11/25 05:06:26;;;;;;;0.00;0.00;;;;;;;;;;5082647;28;20594;-76
2021/11/25 05:08:53;;;;;;;0.00;0.00;;;;;;;;;;5087261;28;20210;-75
2021/11/25 05:11:22;;;;;;;0.00;0.00;;;;;;;;;;5090902;28;20195;-75
2021/11/25 05:13:49;;;;;;;0.00;0.00;;;;;;;;;;5091024;28;20666;-76
2021/11/25 05:16:17;;;;;;;0.00;0.00;;;;;;;;;;5092303;28;20202;-75
2021/11/25 05:18:44;;;;;;;0.00;0.00;;;;;;;;;;5091036;28;20206;-74
2021/11/25 05:21:12;;;;;;;0.00;0.00;;;;;;;;;;5090789;28;20659;-75
2021/11/25 05:23:39;;;;;;;0.00;0.00;;;;;;;;;;5089883;28;20206;-76
2021/11/25 05:26:07;;;;;;;0.00;0.00;;;;;;;;;;5091680;28;20198;-76
2021/11/25 05:28:36;;;;;;;0.00;0.00;;;;;;;;;;5082866;28;20209;-76
2021/11/25 05:31:04;;;;;;;0.00;0.00;;;;;;;;;;5081318;28;20209;-76
2021/11/25 05:33:31;;;;;;;0.00;0.00;;;;;;;;;;5087821;28;20195;-76
2021/11/25 05:35:58;;;;;;;0.00;0.00;;;;;;;;;;5092478;28;20577;-74
2021/11/25 05:38:26;;;;;;;0.00;0.00;;;;;;;;;;5087790;28;20199;-74
2021/11/25 05:40:53;;;;;;;0.00;0.00;;;;;;;;;;5088783;28;20198;-74
2021/11/25 05:43:21;;;;;;;0.00;0.00;;;;;;;;;;5087099;28;20199;-74
2021/11/25 05:45:51;;;;;;;0.00;0.00;;;;;;;;;;5093047;28;20209;-77
2021/11/25 05:48:19;;;;;;;0.00;0.00;;;;;;;;;;5087144;28;20226;-73
2021/11/25 05:50:46;;;;;;;0.00;0.00;;;;;;;;;;5091095;28;20206;-74
2021/11/25 05:53:18;;;;;;;0.00;0.00;;;;;;;;;;5087765;28;20221;-74
2021/11/25 05:55:45;;;;;;;0.00;0.00;;;;;;;;;;5091249;28;20202;-74
2021/11/25 05:58:13;;;;;;;0.00;0.00;;;;;;;;;;5089214;28;20582;-74
2021/11/25 06:00:40;;;;;;;0.00;0.00;;;;;;;;;;5088481;28;20233;-73
2021/11/25 06:03:09;;;;;;;0.00;0.00;;;;;;;;;;5089063;28;20194;-75
2021/11/25 06:05:37;;;;;;;0.00;0.00;;;;;;;;;;5090687;28;20685;-73
2021/11/25 06:08:04;;;;;;;0.00;0.00;;;;;;;;;;5086594;28;20230;-75
2021/11/25 06:10:32;;;;;;;0.00;0.00;;;;;;;;;;5089508;28;20202;-75
2021/11/25 06:13:00;;;;;;;0.00;0.00;;;;;;;;;;5086676;28;20218;-75
2021/11/25 06:15:27;;;;;;;0.00;0.00;;;;;;;;;;5090988;28;20205;-76
2021/11/25 06:17:55;;;;;;;0.00;0.00;;;;;;;;;;5089047;28;20698;-76
2021/11/25 06:20:24;;;;;;;0.00;0.00;;;;;;;;;;5087753;28;20198;-76
2021/11/25 06:22:52;;;;;;;0.00;0.00;;;;;;;;;;5087916;28;20719;-75
2021/11/25 06:25:21;;;;;;;0.00;0.00;;;;;;;;;;5090403;28;20259;-73
2021/11/25 06:27:48;;;;;;;0.00;0.00;;;;;;;;;;5086889;28;20234;-75
2021/11/25 06:30:16;;;;;;;0.47;0.47;;;;;;;;;;5089946;28;20194;-75
2021/11/25 06:32:46;;;;;;;0.00;0.00;;;;;;;;;;5086074;28;20199;-74
2021/11/25 06:35:15;;;;;;;0.00;0.00;;;;;;;;;;5088219;28;20667;-76
2021/11/25 06:37:45;;;;;;;0.00;0.00;;;;;;;;;;5086766;28;20204;-76
2021/11/25 06:40:14;;;;;;;0.00;0.00;;;;;;;;;;5086160;28;20210;-75
2021/11/25 06:42:41;;;;;;;0.00;0.00;;;;;;;;;;5080939;28;20210;-76
2021/11/25 06:45:09;;;;;;;0.00;0.00;;;;;;;;;;5080433;28;20199;-75
2021/11/25 06:47:37;;;;;;;0.00;0.00;;;;;;;;;;5083957;28;20226;-76
2021/11/25 06:50:05;;;;;;;0.00;0.00;;;;;;;;;;5088617;28;20229;-75
2021/11/25 06:52:32;;;;;;;0.00;0.00;;;;;;;;;;5088069;28;20198;-76
2021/11/25 06:55:01;;;;;;;0.00;0.00;;;;;;;;;;5090796;28;20559;-76
2021/11/25 06:57:28;;;;;;;0.00;0.00;;;;;;;;;;5088013;28;20203;-76
2021/11/25 06:59:56;;;;;;;0.00;0.00;;;;;;;;;;5083527;28;20229;-75
2021/11/25 07:02:23;;;;;;;0.00;0.00;;;;;;;;;;5086780;28;20198;-75
2021/11/25 07:04:50;;;;;;;0.00;0.00;;;;;;;;;;5090107;28;20210;-75
2021/11/25 07:07:18;;;;;;;0.50;0.50;;;;;;;;;;5085567;28;20248;-76
2021/11/25 07:09:45;;;;;;;0.00;0.00;;;;;;;;;;5086312;28;20199;-75
2021/11/25 07:12:14;;;;;;;0.00;0.00;;;;;;;;;;5084492;28;20195;-75
2021/11/25 07:14:41;;;;;;;0.00;0.00;;;;;;;;;;5083248;28;20213;-76
2021/11/25 07:17:09;;;;;;;0.00;0.00;;;;;;;;;;5080487;28;20203;-75
2021/11/25 07:19:36;;;;;;;0.00;0.00;;;;;;;;;;5084631;28;20267;-71
2021/11/25 07:22:04;;;;;;;0.00;0.00;;;;;;;;;;5085276;28;20202;-75
2021/11/25 07:24:31;;;;;;;0.00;0.00;;;;;;;;;;5085476;28;20679;-74
2021/11/25 07:26:59;;;;;;;0.00;0.00;;;;;;;;;;5085986;28;20697;-75
2021/11/25 07:29:28;;;;;;;0.00;0.00;;;;;;;;;;5083493;28;20663;-76
2021/11/25 07:31:55;;;;;;;0.00;0.00;;;;;;;;;;5087382;28;20289;-75
2021/11/25 07:34:23;;;;;;;0.00;0.00;;;;;;;;;;5086972;28;20576;-74
2021/11/25 07:36:50;;;;;;;0.00;0.00;;;;;;;;;;5086925;28;20202;-75
2021/11/25 07:39:18;;;;;;;0.00;0.00;;;;;;;;;;5087658;28;20194;-76
2021/11/25 07:41:45;;;;;;;0.00;0.00;;;;;;;;;;5077127;28;20577;-75
2021/11/25 07:44:12;;;;;;;0.00;0.00;;;;;;;;;;5088502;28;20202;-77
2021/11/25 07:46:41;;;;;;;0.00;0.00;;;;;;;;;;5085468;28;20206;-77
2021/11/25 07:49:09;;;;;;;0.00;0.00;;;;;;;;;;5086237;28;20303;-76
2021/11/25 07:51:37;;;;;;;0.00;0.00;;;;;;;;;;5085350;28;20209;-76
2021/11/25 07:54:08;;;;;;;0.67;0.67;;;;;;;;;;5087319;28;20205;-76
2021/11/25 07:56:38;;;;;;;0.00;0.00;;;;;;;;;;5087678;28;20205;-76
2021/11/25 07:59:06;;;;;;;0.00;0.00;;;;;;;;;;5085552;28;20315;-76
2021/11/25 08:01:33;;;;;;;0.00;0.00;;;;;;;;;;5080998;28;20851;-77
2021/11/25 08:04:02;;;;;;;0.00;0.00;;;;;;;;;;5086815;28;20201;-75
2021/11/25 08:06:30;;;;;;;0.00;0.00;;;;;;;;;;5087326;28;20198;-75
2021/11/25 08:08:57;;;;;;;0.00;0.00;;;;;;;;;;5086055;28;20237;-76
2021/11/25 08:11:24;;;;;;;0.00;0.00;;;;;;;;;;5072977;28;20576;-74
2021/11/25 08:13:52;;;;;;;0.00;0.00;;;;;;;;;;5070297;28;20261;-77
2021/11/25 08:16:19;;;;;;;0.00;0.00;;;;;;;;;;5075069;28;20585;-79
2021/11/25 08:18:47;;;;;;;0.00;0.00;;;;;;;;;;5077496;28;20209;-76
2021/11/25 08:21:16;;;;;;;0.00;0.00;;;;;;;;;;5076836;28;20203;-77
2021/11/25 08:23:43;;;;;;;0.00;0.00;;;;;;;;;;5077643;28;20206;-76
2021/11/25 08:26:10;;;;;;;0.00;0.00;;;;;;;;;;5077273;28;20198;-77
2021/11/25 08:28:39;;;;;;;0.00;0.00;;;;;;;;;;5077204;28;20735;-77
2021/11/25 08:31:07;;;;;;;0.00;0.00;;;;;;;;;;5077015;28;20217;-79
2021/11/25 08:33:34;;;;;;;0.00;0.00;;;;;;;;;;5075856;28;20229;-76
2021/11/25 08:36:02;;;;;;;0.00;0.00;;;;;;;;;;5076843;28;20206;-77
2021/11/25 08:38:32;;;;;;;0.00;0.00;;;;;;;;;;5078922;28;20210;-77
2021/11/25 08:41:00;;;;;;;0.00;0.00;;;;;;;;;;5075548;28;20210;-76
2021/11/25 08:43:27;;;;;;;0.00;0.00;;;;;;;;;;5075592;28;20229;-75
2021/11/25 08:45:55;;;;;;;0.00;0.00;;;;;;;;;;5075608;28;20203;-77
2021/11/25 08:48:22;;;;;;;0.00;0.00;;;;;;;;;;5076413;28;20237;-75
2021/11/25 08:50:50;;;;;;;0.00;0.00;;;;;;;;;;5072893;28;20215;-76
2021/11/25 08:53:19;;;;;;;0.10;0.10;;;;;;;;;;5072744;28;20659;-79
2021/11/25 08:55:49;;;;;;;0.00;0.00;;;;;;;;;;5072200;28;20263;-76
2021/11/25 08:58:17;;;;;;;0.00;0.00;;;;;;;;;;5076851;28;20313;-76
2021/11/25 09:00:44;;;;;;;0.00;0.00;;;;;;;;;;5075333;28;20218;-77
2021/11/25 09:03:11;;;;;;;0.00;0.00;;;;;;;;;;5076764;28;20563;-76
2021/11/25 09:05:39;;;;;;;0.00;0.00;;;;;;;;;;5081660;28;20748;-78
2021/11/25 09:08:07;;;;;;;0.00;0.00;;;;;;;;;;5082074;28;20236;-78
2021/11/25 09:10:36;;;;;;;0.00;0.00;;;;;;;;;;5082420;28;20209;-79
2021/11/25 09:13:05;;;;;;;0.00;0.00;;;;;;;;;;5082653;28;20211;-79
2021/11/25 09:15:33;;;;;;;0.00;0.00;;;;;;;;;;5082043;28;20202;-79
2021/11/25 09:18:02;;;;;;;0.00;0.00;;;;;;;;;;5081114;28;20677;-78
2021/11/25 09:20:33;;;;;;;0.00;0.00;;;;;;;;;;5079495;28;20211;-79
2021/11/25 09:23:01;;;;;;;0.00;0.00;;;;;;;;;;5081405;28;20289;-78
2021/11/25 09:25:29;;;;;;;0.00;0.00;;;;;;;;;;5081070;28;20214;-78
2021/11/25 09:27:56;;;;;;;0.00;0.00;;;;;;;;;;5083287;28;20226;-78
2021/11/25 09:30:25;;;;;;;0.00;0.00;;;;;;;;;;5081731;28;20213;-78
2021/11/25 09:32:53;;;;;;;0.00;0.00;;;;;;;;;;5073219;28;20218;-77
2021/11/25 09:35:21;;;;;;;0.00;0.00;;;;;;;;;;5079578;28;20597;-76
2021/11/25 09:37:49;;;;;;;0.00;0.00;;;;;;;;;;5083638;28;20194;-79
2021/11/25 09:40:22;;;;;;;0.00;0.00;;;;;;;;;;5080581;28;20244;-75
2021/11/25 09:42:50;;;;;;;0.00;0.00;;;;;;;;;;5081625;28;20201;-77
2021/11/25 09:45:21;;;;;;;0.00;0.00;;;;;;;;;;5080429;28;20663;-78
2021/11/25 09:47:51;;;;;;;0.00;0.00;;;;;;;;;;5082202;28;20332;-77
2021/11/25 09:50:20;;;;;;;0.00;0.00;;;;;;;;;;5076844;28;20664;-76
2021/11/25 09:52:49;;;;;;;0.00;0.00;;;;;;;;;;5080419;28;20805;-77
2021/11/25 09:55:16;;;;;;;0.00;0.00;;;;;;;;;;5081296;28;20218;-77
2021/11/25 09:57:44;;;;;;;0.00;0.00;;;;;;;;;;5080329;28;20566;-77
2021/11/25 10:00:12;;;;;;;0.00;0.00;;;;;;;;;;5080147;28;20222;-78
2021/11/25 10:02:40;;;;;;;0.00;0.00;;;;;;;;;;5081459;28;20567;-76
2021/11/25 10:05:09;;;;;;;0.00;0.00;;;;;;;;;;5080333;28;20214;-77
2021/11/25 10:07:38;;;;;;;0.00;0.00;;;;;;;;;;5077947;28;20210;-76
2021/11/25 10:10:24;;;;;;;0.00;0.00;;;;;;;;;;5080544;28;20206;-78
2021/11/25 10:12:57;;;;;;;0.00;0.00;;;;;;;;;;5084010;28;20206;-78
2021/11/25 10:15:28;;;;;;;0.00;0.00;;;;;;;;;;5079565;28;20204;-78
2021/11/25 10:17:58;;;;;;;0.00;0.00;;;;;;;;;;5079504;28;20247;-78
2021/11/25 10:20:30;;;;;;;0.00;0.00;;;;;;;;;;5079708;28;20214;-77
2021/11/25 10:23:17;;;;;;;0.00;0.00;;;;;;;;;;5081586;28;20207;-75
2021/11/25 10:25:45;;;;;;;0.00;0.00;;;;;;;;;;5079644;28;20255;-79
2021/11/25 10:28:20;;;;;;;0.00;0.00;;;;;;;;;;5080498;28;21329;-76
2021/11/25 10:30:48;;;;;;;0.00;0.00;;;;;;;;;;5078869;28;20207;-77
2021/11/25 10:33:15;;;;;;;0.00;0.00;;;;;;;;;;5081669;28;20190;-78
2021/11/25 10:35:52;;;;;;;0.00;0.00;;;;;;;;;;5078077;28;20205;-79
2021/11/25 10:38:36;;;;;;;0.00;0.00;;;;;;;;;;5079295;28;20205;-75
2021/11/25 10:41:13;;;;;;;0.00;0.00;;;;;;;;;;5078881;28;20206;-78
2021/11/25 10:43:41;;;;;;;0.00;0.00;;;;;;;;;;5082710;28;20620;-76
2021/11/25 10:46:09;;;;;;;0.00;0.00;;;;;;;;;;5079301;28;20210;-76
2021/11/25 10:48:39;;;;;;;0.00;0.00;;;;;;;;;;5078753;28;21024;-77
2021/11/25 10:51:21;;;;;;;0.00;0.00;;;;;;;;;;5080156;28;20217;-78
2021/11/25 10:54:03;;;;;;;0.00;0.00;;;;;;;;;;5078642;28;20202;-77
2021/11/25 10:56:37;;;;;;;0.00;0.00;;;;;;;;;;5078052;28;20206;-79
2021/11/25 10:59:05;;;;;;;0.00;0.00;;;;;;;;;;5079877;28;20193;-74
2021/11/25 11:01:37;;;;;;;0.00;0.00;;;;;;;;;;5082871;28;20320;-74
2021/11/25 11:04:04;;;;;;;0.00;0.00;;;;;;;;;;5081148;28;20202;-77
2021/11/25 11:06:32;;;;;;;0.00;0.00;;;;;;;;;;5086580;28;20663;-77
2021/11/25 11:09:00;;;;;;;0.00;0.00;;;;;;;;;;5089609;28;20275;-78
2021/11/25 11:11:30;;;;;;;0.00;0.00;;;;;;;;;;5088686;28;20568;-78
2021/11/25 11:14:13;;;;;;;0.00;0.00;;;;;;;;;;5086586;28;20230;-75
2021/11/25 11:16:47;;;;;;;0.00;0.00;;;;;;;;;;5089705;28;20249;-77
2021/11/25 11:19:16;;;;;;;0.00;0.00;;;;;;;;;;5090560;28;20259;-78
2021/11/25 11:21:44;;;;;;;0.00;0.00;;;;;;;;;;5085341;28;20236;-78
2021/11/25 11:24:13;;;;;;;0.00;0.00;;;;;;;;;;5089558;28;20206;-78
2021/11/25 11:26:43;;;;;;;0.00;0.00;;;;;;;;;;5087715;28;20195;-78
2021/11/25 11:29:12;;;;;;;0.00;0.00;;;;;;;;;;5085550;28;20218;-78
2021/11/25 11:31:40;;;;;;;0.00;0.00;;;;;;;;;;5083813;28;20329;-77
2021/11/25 11:34:09;;;;;;;0.00;0.00;;;;;;;;;;5088671;28;20238;-77
2021/11/25 11:36:39;;;;;;;0.00;0.00;;;;;;;;;;5086609;28;20218;-75
2021/11/25 11:39:06;;;;;;;0.00;0.00;;;;;;;;;;5085899;28;20202;-77
2021/11/25 11:41:34;;;;;;;0.00;0.00;;;;;;;;;;5092764;28;20195;-79
2021/11/25 11:44:03;;;;;;;0.00;0.00;;;;;;;;;;5087355;28;20312;-77
2021/11/25 11:46:31;;;;;;;0.00;0.00;;;;;;;;;;5088691;28;20548;-76
2021/11/25 11:48:59;;;;;;;0.00;0.00;;;;;;;;;;5085347;28;20218;-77
2021/11/25 11:51:27;;;;;;;0.00;0.00;;;;;;;;;;5087673;28;20194;-77
2021/11/25 11:53:56;;;;;;;0.00;0.00;;;;;;;;;;5083440;28;20663;-79
2021/11/25 11:56:35;;;;;;;0.00;0.00;;;;;;;;;;5079865;28;20206;-77
2021/11/25 11:59:05;;;;;;;0.00;0.00;;;;;;;;;;5078308;28;20198;-79
2021/11/25 12:01:33;;;;;;;0.00;0.00;;;;;;;;;;5076869;28;20232;-77
2021/11/25 12:04:12;;;;;;;0.00;0.00;;;;;;;;;;5076718;28;20352;-77
2021/11/25 12:06:41;;;;;;;0.00;0.00;;;;;;;;;;5078938;28;20275;-78
2021/11/25 12:09:27;;;;;;;0.00;0.00;;;;;;;;;;5079020;28;20318;-79
2021/11/25 12:11:56;;;;;;;0.00;0.00;;;;;;;;;;5079189;28;20201;-78
2021/11/25 12:14:25;;;;;;;0.00;0.00;;;;;;;;;;5077619;28;20622;-79
2021/11/25 12:16:54;;;;;;;0.00;0.00;;;;;;;;;;5079711;28;20202;-73
2021/11/25 12:19:26;;;;;;;0.00;0.00;;;;;;;;;;5076238;28;20666;-78
2021/11/25 12:21:55;;;;;;;0.00;0.00;;;;;;;;;;5078974;28;20203;-73
2021/11/25 12:24:26;;;;;;;0.00;0.00;;;;;;;;;;5078346;28;20202;-76
2021/11/25 12:27:05;;;;;;;0.00;0.00;;;;;;;;;;5079754;28;20198;-76
2021/11/25 12:29:35;;;;;;;0.00;0.00;;;;;;;;;;5079005;28;20232;-77
2021/11/25 12:32:26;;;;;;;0.00;0.00;;;;;;;;;;5078933;28;20209;-79
2021/11/25 12:34:54;;;;;;;0.00;0.00;;;;;;;;;;5080712;28;20210;-78
2021/11/25 12:37:40;;;;;;;0.00;0.00;;;;;;;;;;5080923;28;20202;-79
2021/11/25 12:40:08;;;;;;;0.00;0.00;;;;;;;;;;5081239;28;20544;-77
2021/11/25 12:42:36;;;;;;;0.00;0.00;;;;;;;;;;5083957;28;20207;-79
2021/11/25 12:45:05;;;;;;;0.00;0.00;;;;;;;;;;5080604;28;20228;-79
2021/11/25 12:47:32;;;;;;;0.00;0.00;;;;;;;;;;5081083;28;20256;-79
2021/11/25 12:50:14;;;;;;;0.00;0.00;;;;;;;;;;5080867;28;20225;-79
2021/11/25 12:52:42;;;;;;;0.00;0.00;;;;;;;;;;5083080;28;20213;-78
2021/11/25 12:55:10;;;;;;;0.00;0.00;;;;;;;;;;5078816;28;20345;-78
2021/11/25 12:57:50;;;;;;;0.00;0.00;;;;;;;;;;5076764;28;20681;-72
2021/11/25 13:00:20;;;;;;;0.00;0.00;;;;;;;;;;5080243;28;20233;-75
2021/11/25 13:02:47;;;;;;;0.00;0.00;;;;;;;;;;5084573;28;20209;-76
2021/11/25 13:05:15;;;;;;;0.00;0.00;;;;;;;;;;5081246;28;20195;-74
2021/11/25 13:07:48;;;;;;;0.00;0.00;;;;;;;;;;5079834;28;20194;-75
2021/11/25 13:10:24;;;;;;;0.00;0.00;;;;;;;;;;5080762;28;20699;-77
2021/11/25 13:12:52;;;;;;;0.00;0.00;;;;;;;;;;5082644;28;20204;-75
2021/11/25 13:15:20;;;;;;;0.00;0.00;;;;;;;;;;5078485;28;20198;-76
2021/11/25 13:17:57;;;;;;;0.00;0.00;;;;;;;;;;5080969;28;20209;-75
2021/11/25 13:20:43;;;;;;;0.00;0.00;;;;;;;;;;5080139;28;20207;-77
2021/11/25 13:23:12;;;;;;;0.00;0.00;;;;;;;;;;5081016;28;20210;-75
2021/11/25 13:25:50;;;;;;;0.00;0.00;;;;;;;;;;5079593;28;20202;-76
2021/11/25 13:28:21;;;;;;;0.00;0.00;;;;;;;;;;5081427;28;20209;-75
2021/11/25 13:30:50;;;;;;;0.00;0.00;;;;;;;;;;5081981;28;20233;-75
2021/11/25 13:33:18;;;;;;;0.00;0.00;;;;;;;;;;5080160;28;20538;-74
2021/11/25 13:35:45;;;;;;;0.00;0.00;;;;;;;;;;5080315;28;20243;-75
2021/11/25 13:38:13;;;;;;;0.00;0.00;;;;;;;;;;5082025;28;20715;-76
2021/11/25 13:40:40;;;;;;;0.00;0.00;;;;;;;;;;5083654;28;20586;-74
2021/11/25 13:43:09;;;;;;;0.00;0.00;;;;;;;;;;5079833;28;20206;-76
2021/11/25 13:45:37;;;;;;;0.00;0.00;;;;;;;;;;5084096;28;20209;-74
2021/11/25 13:48:06;;;;;;;0.00;0.00;;;;;;;;;;5081083;28;20195;-76
2021/11/25 13:50:37;;;;;;;0.00;0.00;;;;;;;;;;5078754;28;20230;-76
2021/11/25 13:53:05;;;;;;;0.00;0.00;;;;;;;;;;5076396;28;20721;-75
2021/11/25 13:55:35;;;;;;;0.00;0.00;;;;;;;;;;5081828;28;20202;-74
2021/11/25 13:58:04;;;;;;;0.00;0.00;;;;;;;;;;5081847;28;20262;-77
2021/11/25 14:00:33;;;;;;;0.00;0.00;;;;;;;;;;5078239;28;20703;-78
2021/11/25 14:03:07;;;;;;;0.00;0.00;;;;;;;;;;5080979;28;20210;-75
2021/11/25 14:05:42;;;;;;;0.23;0.23;;;;;;;;;;5083358;28;20209;-75
2021/11/25 14:08:10;;;;;;;0.00;0.00;;;;;;;;;;5087682;28;20669;-76
2021/11/25 14:10:37;;;;;;;0.00;0.00;;;;;;;;;;5082510;28;20229;-77
2021/11/25 14:13:07;;;;;;;0.00;0.00;;;;;;;;;;5083754;28;20234;-77
2021/11/25 14:15:35;;;;;;;0.00;0.00;;;;;;;;;;5084706;28;20201;-76
2021/11/25 14:18:05;;;;;;;0.00;0.00;;;;;;;;;;5086967;28;20209;-72
2021/11/25 14:20:35;;;;;;;0.00;0.00;;;;;;;;;;5092002;28;20595;-76
2021/11/25 14:23:14;;;;;;;0.10;0.10;;;;;;;;;;5089452;28;20361;-78
2021/11/25 14:25:43;;;;;;;0.00;0.00;;;;;;;;;;5091051;28;20201;-77
2021/11/25 14:31:10;;;;;;;0.00;0.00;;;;;;;;;;5081835;28;20857;-76
2021/11/25 14:33:44;;;;;;;0.00;0.00;;;;;;;;;;5080934;28;20207;-78
2021/11/25 14:36:19;;;;;;;0.00;0.00;;;;;;;;;;5078876;28;20209;-78
2021/11/25 14:38:48;;;;;;;0.00;0.00;;;;;;;;;;5078761;28;20205;-78
2021/11/25 14:41:24;;;;;;;0.00;0.00;;;;;;;;;;5080948;28;20303;-74
2021/11/25 14:43:59;;;;;;;0.00;0.00;;;;;;;;;;5078782;28;20198;-78
2021/11/25 14:46:27;;;;;;;0.00;0.00;;;;;;;;;;5079055;28;20198;-77
2021/11/25 14:48:55;;;;;;;0.00;0.00;;;;;;;;;;5080629;28;20563;-71
2021/11/25 14:51:24;;;;;;;0.00;0.00;;;;;;;;;;5081100;28;20287;-72
2021/11/25 14:53:53;;;;;;;0.00;0.00;;;;;;;;;;5078088;28;20198;-75
2021/11/25 14:56:25;;;;;;;0.00;0.00;;;;;;;;;;5080708;28;20256;-76
2021/11/25 14:58:56;;;;;;;0.00;0.00;;;;;;;;;;5083100;28;20213;-75
2021/11/25 15:01:28;;;;;;;0.00;0.00;;;;;;;;;;5074973;28;20706;-75